Joseph City, Arizona
Current Conditions -  °F | °C
As of 6:56 AM on Tuesday 21 Oct 2014 (Local Time) from KINW Reporting Station
Clear Clear  
Wind Chill: 44°   Ceiling: Unl
Heat Index: 46°   Visibility: 10mi
Dew Point: 42°   Wind: 5mph
Humidity: 86%   Direction: 110°ESE
Pressure: 30.09"   Gusts: NA
Location:  34.96°N, 110.34°W
Report Text: KINW 211356Z AUTO 11004KT 10SM CLR 08/06 A3009 RMK AO2 SLP156 T00780056
Loading
Personal Weather Stations






























Interactive Weather Map
Tropical Storm Tracking
New forecast layout! Learn more

10-Day Weather Forecast

Advertisements
Track Severe Weather on mobile